sensor_id;sensor_type;location;lat;lon;timestamp;P1;durP1;ratioP1;P2;durP2;ratioP2
10719;SDS011;5411;58.386;15.560;2022-10-22T00:00:38;7.33;;;5.20;;
10719;SDS011;5411;58.386;15.560;2022-10-22T00:03:07;7.67;;;5.67;;
10719;SDS011;5411;58.386;15.560;2022-10-22T00:05:42;6.17;;;5.20;;
10719;SDS011;5411;58.386;15.560;2022-10-22T00:08:15;9.87;;;5.20;;
10719;SDS011;5411;58.386;15.560;2022-10-22T00:10:46;6.10;;;4.67;;
10719;SDS011;5411;58.386;15.560;2022-10-22T00:13:15;7.60;;;5.00;;
10719;SDS011;5411;58.386;15.560;2022-10-22T00:15:43;7.23;;;4.87;;
10719;SDS011;5411;58.386;15.560;2022-10-22T00:18:14;7.83;;;5.43;;
10719;SDS011;5411;58.386;15.560;2022-10-22T00:20:43;8.00;;;5.07;;
10719;SDS011;5411;58.386;15.560;2022-10-22T00:23:15;7.73;;;5.60;;
10719;SDS011;5411;58.386;15.560;2022-10-22T00:25:43;9.40;;;5.13;;
10719;SDS011;5411;58.386;15.560;2022-10-22T00:28:23;7.30;;;5.60;;
10719;SDS011;5411;58.386;15.560;2022-10-22T00:31:04;8.37;;;5.57;;
10719;SDS011;5411;58.386;15.560;2022-10-22T00:33:35;7.47;;;5.50;;
10719;SDS011;5411;58.386;15.560;2022-10-22T00:36:04;6.57;;;4.90;;
10719;SDS011;5411;58.386;15.560;2022-10-22T00:38:38;6.17;;;4.83;;
10719;SDS011;5411;58.386;15.560;2022-10-22T00:41:06;8.57;;;4.90;;
10719;SDS011;5411;58.386;15.560;2022-10-22T00:46:22;8.80;;;5.50;;
10719;SDS011;5411;58.386;15.560;2022-10-22T00:48:51;8.67;;;5.50;;
10719;SDS011;5411;58.386;15.560;2022-10-22T00:51:20;7.97;;;5.00;;
10719;SDS011;5411;58.386;15.560;2022-10-22T00:53:53;8.50;;;5.43;;
10719;SDS011;5411;58.386;15.560;2022-10-22T00:56:24;9.80;;;5.57;;
10719;SDS011;5411;58.386;15.560;2022-10-22T00:58:54;9.53;;;5.40;;
10719;SDS011;5411;58.386;15.560;2022-10-22T01:01:25;7.97;;;4.87;;
10719;SDS011;5411;58.386;15.560;2022-10-22T01:03:58;7.80;;;5.40;;
10719;SDS011;5411;58.386;15.560;2022-10-22T01:06:28;7.77;;;5.93;;
10719;SDS011;5411;58.386;15.560;2022-10-22T01:09:04;8.63;;;5.20;;
10719;SDS011;5411;58.386;15.560;2022-10-22T01:11:47;9.90;;;5.20;;
10719;SDS011;5411;58.386;15.560;2022-10-22T01:14:23;8.50;;;5.80;;
10719;SDS011;5411;58.386;15.560;2022-10-22T01:16:58;8.30;;;5.80;;
10719;SDS011;5411;58.386;15.560;2022-10-22T01:19:38;7.47;;;5.13;;
10719;SDS011;5411;58.386;15.560;2022-10-22T01:22:24;7.10;;;5.43;;
10719;SDS011;5411;58.386;15.560;2022-10-22T01:25:01;6.77;;;5.60;;
10719;SDS011;5411;58.386;15.560;2022-10-22T01:27:51;7.07;;;5.53;;
10719;SDS011;5411;58.386;15.560;2022-10-22T01:30:38;6.67;;;4.77;;
10719;SDS011;5411;58.386;15.560;2022-10-22T01:33:08;8.70;;;5.60;;
10719;SDS011;5411;58.386;15.560;2022-10-22T01:35:41;8.97;;;5.57;;
10719;SDS011;5411;58.386;15.560;2022-10-22T01:38:12;9.47;;;5.47;;
10719;SDS011;5411;58.386;15.560;2022-10-22T01:40:44;8.77;;;5.37;;
10719;SDS011;5411;58.386;15.560;2022-10-22T01:43:14;6.93;;;5.70;;
10719;SDS011;5411;58.386;15.560;2022-10-22T01:45:47;7.67;;;5.03;;
10719;SDS011;5411;58.386;15.560;2022-10-22T01:48:25;7.07;;;5.70;;
10719;SDS011;5411;58.386;15.560;2022-10-22T01:51:29;7.50;;;5.47;;
10719;SDS011;5411;58.386;15.560;2022-10-22T01:54:24;7.40;;;5.17;;
10719;SDS011;5411;58.386;15.560;2022-10-22T01:57:03;8.17;;;5.10;;
10719;SDS011;5411;58.386;15.560;2022-10-22T01:59:49;11.37;;;5.33;;
10719;SDS011;5411;58.386;15.560;2022-10-22T02:02:30;9.57;;;5.67;;
10719;SDS011;5411;58.386;15.560;2022-10-22T02:05:06;7.60;;;5.60;;
10719;SDS011;5411;58.386;15.560;2022-10-22T02:07:44;8.57;;;5.37;;
10719;SDS011;5411;58.386;15.560;2022-10-22T02:10:16;8.40;;;5.63;;
10719;SDS011;5411;58.386;15.560;2022-10-22T02:12:47;8.80;;;5.57;;
10719;SDS011;5411;58.386;15.560;2022-10-22T02:15:22;9.93;;;6.20;;
10719;SDS011;5411;58.386;15.560;2022-10-22T02:17:57;11.07;;;5.83;;
10719;SDS011;5411;58.386;15.560;2022-10-22T02:20:28;10.70;;;5.93;;
10719;SDS011;5411;58.386;15.560;2022-10-22T02:22:58;7.40;;;5.63;;
10719;SDS011;5411;58.386;15.560;2022-10-22T02:25:28;10.50;;;5.40;;
10719;SDS011;5411;58.386;15.560;2022-10-22T02:28:06;9.10;;;5.63;;
10719;SDS011;5411;58.386;15.560;2022-10-22T02:30:51;9.23;;;5.27;;
10719;SDS011;5411;58.386;15.560;2022-10-22T02:33:25;9.67;;;5.70;;
10719;SDS011;5411;58.386;15.560;2022-10-22T02:35:57;11.20;;;5.50;;
10719;SDS011;5411;58.386;15.560;2022-10-22T02:38:29;8.60;;;5.43;;
10719;SDS011;5411;58.386;15.560;2022-10-22T02:40:59;6.87;;;5.13;;
10719;SDS011;5411;58.386;15.560;2022-10-22T02:43:28;11.37;;;6.37;;
10719;SDS011;5411;58.386;15.560;2022-10-22T02:45:56;9.03;;;5.63;;
10719;SDS011;5411;58.386;15.560;2022-10-22T02:48:28;10.73;;;5.37;;
10719;SDS011;5411;58.386;15.560;2022-10-22T02:50:57;8.70;;;5.47;;
10719;SDS011;5411;58.386;15.560;2022-10-22T02:53:26;7.27;;;5.40;;
10719;SDS011;5411;58.386;15.560;2022-10-22T02:55:59;9.83;;;5.40;;
10719;SDS011;5411;58.386;15.560;2022-10-22T02:58:29;9.93;;;5.50;;
10719;SDS011;5411;58.386;15.560;2022-10-22T03:01:02;10.07;;;5.97;;
10719;SDS011;5411;58.386;15.560;2022-10-22T03:03:45;8.80;;;6.30;;
10719;SDS011;5411;58.386;15.560;2022-10-22T03:06:26;8.70;;;6.53;;
10719;SDS011;5411;58.386;15.560;2022-10-22T03:08:56;10.10;;;6.33;;
10719;SDS011;5411;58.386;15.560;2022-10-22T03:11:27;10.07;;;6.37;;
10719;SDS011;5411;58.386;15.560;2022-10-22T03:13:55;8.23;;;6.00;;
10719;SDS011;5411;58.386;15.560;2022-10-22T03:16:24;7.73;;;5.43;;
10719;SDS011;5411;58.386;15.560;2022-10-22T03:18:54;11.93;;;7.80;;
10719;SDS011;5411;58.386;15.560;2022-10-22T03:21:26;10.40;;;6.60;;
10719;SDS011;5411;58.386;15.560;2022-10-22T03:24:04;10.77;;;6.90;;
10719;SDS011;5411;58.386;15.560;2022-10-22T03:26:38;10.73;;;6.50;;
10719;SDS011;5411;58.386;15.560;2022-10-22T03:29:09;9.33;;;5.97;;
10719;SDS011;5411;58.386;15.560;2022-10-22T03:31:40;8.53;;;5.87;;
10719;SDS011;5411;58.386;15.560;2022-10-22T03:34:11;11.17;;;6.40;;
10719;SDS011;5411;58.386;15.560;2022-10-22T03:36:42;7.50;;;5.73;;
10719;SDS011;5411;58.386;15.560;2022-10-22T03:39:11;7.80;;;6.20;;
10719;SDS011;5411;58.386;15.560;2022-10-22T03:41:41;8.77;;;6.30;;
10719;SDS011;5411;58.386;15.560;2022-10-22T03:44:11;10.10;;;6.10;;
10719;SDS011;5411;58.386;15.560;2022-10-22T03:46:39;9.83;;;6.70;;
10719;SDS011;5411;58.386;15.560;2022-10-22T03:49:09;12.30;;;6.23;;
10719;SDS011;5411;58.386;15.560;2022-10-22T03:51:38;8.23;;;5.93;;
10719;SDS011;5411;58.386;15.560;2022-10-22T03:54:14;10.77;;;6.43;;
10719;SDS011;5411;58.386;15.560;2022-10-22T03:56:56;10.37;;;6.80;;
10719;SDS011;5411;58.386;15.560;2022-10-22T03:59:24;9.63;;;6.10;;
10719;SDS011;5411;58.386;15.560;2022-10-22T04:01:52;10.37;;;6.10;;
10719;SDS011;5411;58.386;15.560;2022-10-22T04:04:23;14.03;;;6.60;;
10719;SDS011;5411;58.386;15.560;2022-10-22T04:06:56;8.17;;;6.10;;
10719;SDS011;5411;58.386;15.560;2022-10-22T04:09:29;10.37;;;6.53;;
10719;SDS011;5411;58.386;15.560;2022-10-22T04:12:00;9.63;;;6.33;;
10719;SDS011;5411;58.386;15.560;2022-10-22T04:14:31;9.60;;;5.93;;
10719;SDS011;5411;58.386;15.560;2022-10-22T04:17:11;9.37;;;5.80;;
10719;SDS011;5411;58.386;15.560;2022-10-22T04:19:41;11.47;;;6.70;;
10719;SDS011;5411;58.386;15.560;2022-10-22T04:22:10;13.97;;;6.53;;
10719;SDS011;5411;58.386;15.560;2022-10-22T04:24:39;9.30;;;6.70;;
10719;SDS011;5411;58.386;15.560;2022-10-22T04:27:11;9.13;;;6.63;;
10719;SDS011;5411;58.386;15.560;2022-10-22T04:29:39;11.83;;;7.30;;
10719;SDS011;5411;58.386;15.560;2022-10-22T04:32:13;9.37;;;6.00;;
10719;SDS011;5411;58.386;15.560;2022-10-22T04:34:46;11.40;;;6.90;;
10719;SDS011;5411;58.386;15.560;2022-10-22T04:37:15;10.23;;;7.17;;
10719;SDS011;5411;58.386;15.560;2022-10-22T04:39:46;9.13;;;6.63;;
10719;SDS011;5411;58.386;15.560;2022-10-22T04:42:14;11.23;;;6.57;;
10719;SDS011;5411;58.386;15.560;2022-10-22T04:44:43;10.73;;;7.10;;
10719;SDS011;5411;58.386;15.560;2022-10-22T04:47:13;12.27;;;6.67;;
10719;SDS011;5411;58.386;15.560;2022-10-22T04:49:45;14.27;;;7.17;;
10719;SDS011;5411;58.386;15.560;2022-10-22T04:52:14;12.97;;;7.33;;
10719;SDS011;5411;58.386;15.560;2022-10-22T04:54:42;9.40;;;6.97;;
10719;SDS011;5411;58.386;15.560;2022-10-22T04:57:14;11.93;;;6.97;;
10719;SDS011;5411;58.386;15.560;2022-10-22T04:59:42;11.77;;;7.43;;
10719;SDS011;5411;58.386;15.560;2022-10-22T05:02:14;11.40;;;7.27;;
10719;SDS011;5411;58.386;15.560;2022-10-22T05:04:45;11.43;;;7.40;;
10719;SDS011;5411;58.386;15.560;2022-10-22T05:07:20;10.47;;;6.37;;
10719;SDS011;5411;58.386;15.560;2022-10-22T05:09:49;11.10;;;6.47;;
10719;SDS011;5411;58.386;15.560;2022-10-22T05:12:21;14.10;;;7.13;;
10719;SDS011;5411;58.386;15.560;2022-10-22T05:14:49;11.53;;;7.43;;
10719;SDS011;5411;58.386;15.560;2022-10-22T05:17:18;13.80;;;7.97;;
10719;SDS011;5411;58.386;15.560;2022-10-22T05:19:51;12.73;;;7.63;;
10719;SDS011;5411;58.386;15.560;2022-10-22T05:22:23;12.57;;;7.50;;
10719;SDS011;5411;58.386;15.560;2022-10-22T05:24:53;9.93;;;6.60;;
10719;SDS011;5411;58.386;15.560;2022-10-22T05:27:21;11.23;;;7.07;;
10719;SDS011;5411;58.386;15.560;2022-10-22T05:29:51;9.80;;;7.07;;
10719;SDS011;5411;58.386;15.560;2022-10-22T05:32:21;14.40;;;7.60;;
10719;SDS011;5411;58.386;15.560;2022-10-22T05:34:51;12.97;;;7.67;;
10719;SDS011;5411;58.386;15.560;2022-10-22T05:37:21;11.73;;;7.80;;
10719;SDS011;5411;58.386;15.560;2022-10-22T05:39:50;14.27;;;7.63;;
10719;SDS011;5411;58.386;15.560;2022-10-22T05:42:42;10.87;;;8.23;;
10719;SDS011;5411;58.386;15.560;2022-10-22T05:45:37;10.93;;;7.77;;
10719;SDS011;5411;58.386;15.560;2022-10-22T05:48:18;12.47;;;7.40;;
10719;SDS011;5411;58.386;15.560;2022-10-22T05:50:49;10.97;;;8.03;;
10719;SDS011;5411;58.386;15.560;2022-10-22T05:53:17;13.23;;;8.53;;
10719;SDS011;5411;58.386;15.560;2022-10-22T05:55:48;10.03;;;7.83;;
10719;SDS011;5411;58.386;15.560;2022-10-22T05:58:17;13.70;;;8.63;;
10719;SDS011;5411;58.386;15.560;2022-10-22T06:00:46;12.70;;;8.80;;
10719;SDS011;5411;58.386;15.560;2022-10-22T06:03:14;16.17;;;8.80;;
10719;SDS011;5411;58.386;15.560;2022-10-22T06:05:44;10.43;;;8.37;;
10719;SDS011;5411;58.386;15.560;2022-10-22T06:08:14;14.20;;;8.90;;
10719;SDS011;5411;58.386;15.560;2022-10-22T06:10:50;14.87;;;8.80;;
10719;SDS011;5411;58.386;15.560;2022-10-22T06:13:20;13.97;;;9.03;;
10719;SDS011;5411;58.386;15.560;2022-10-22T06:15:49;15.10;;;9.70;;
10719;SDS011;5411;58.386;15.560;2022-10-22T06:18:20;14.17;;;9.17;;
10719;SDS011;5411;58.386;15.560;2022-10-22T06:20:50;12.77;;;8.03;;
10719;SDS011;5411;58.386;15.560;2022-10-22T06:23:36;19.57;;;10.03;;
10719;SDS011;5411;58.386;15.560;2022-10-22T06:26:07;17.83;;;10.07;;
10719;SDS011;5411;58.386;15.560;2022-10-22T06:28:39;19.23;;;9.80;;
10719;SDS011;5411;58.386;15.560;2022-10-22T06:31:10;15.30;;;9.50;;
10719;SDS011;5411;58.386;15.560;2022-10-22T06:33:42;16.83;;;9.60;;
10719;SDS011;5411;58.386;15.560;2022-10-22T06:36:12;14.40;;;9.27;;
10719;SDS011;5411;58.386;15.560;2022-10-22T06:38:45;13.83;;;9.30;;
10719;SDS011;5411;58.386;15.560;2022-10-22T06:41:14;14.27;;;9.77;;
10719;SDS011;5411;58.386;15.560;2022-10-22T06:43:52;14.67;;;10.03;;
10719;SDS011;5411;58.386;15.560;2022-10-22T06:46:23;18.97;;;10.87;;
10719;SDS011;5411;58.386;15.560;2022-10-22T06:48:55;15.30;;;9.67;;
10719;SDS011;5411;58.386;15.560;2022-10-22T06:51:25;16.70;;;9.70;;
10719;SDS011;5411;58.386;15.560;2022-10-22T06:54:11;16.80;;;10.17;;
10719;SDS011;5411;58.386;15.560;2022-10-22T06:56:42;20.63;;;10.50;;
10719;SDS011;5411;58.386;15.560;2022-10-22T06:59:15;15.97;;;10.67;;
10719;SDS011;5411;58.386;15.560;2022-10-22T07:01:49;14.97;;;10.13;;
10719;SDS011;5411;58.386;15.560;2022-10-22T07:04:41;17.97;;;10.93;;
10719;SDS011;5411;58.386;15.560;2022-10-22T07:07:09;16.93;;;10.67;;
10719;SDS011;5411;58.386;15.560;2022-10-22T07:09:43;18.13;;;11.20;;
10719;SDS011;5411;58.386;15.560;2022-10-22T07:12:22;18.73;;;10.60;;
10719;SDS011;5411;58.386;15.560;2022-10-22T07:14:52;20.23;;;10.93;;
10719;SDS011;5411;58.386;15.560;2022-10-22T07:17:27;22.10;;;11.30;;
10719;SDS011;5411;58.386;15.560;2022-10-22T07:19:59;21.63;;;10.30;;
10719;SDS011;5411;58.386;15.560;2022-10-22T07:22:31;18.57;;;11.30;;
10719;SDS011;5411;58.386;15.560;2022-10-22T07:25:10;18.50;;;11.17;;
10719;SDS011;5411;58.386;15.560;2022-10-22T07:27:39;17.97;;;10.30;;
10719;SDS011;5411;58.386;15.560;2022-10-22T07:30:08;20.33;;;11.00;;
10719;SDS011;5411;58.386;15.560;2022-10-22T07:32:41;18.47;;;10.63;;
10719;SDS011;5411;58.386;15.560;2022-10-22T07:35:11;18.77;;;11.27;;
10719;SDS011;5411;58.386;15.560;2022-10-22T07:37:41;16.40;;;9.33;;
10719;SDS011;5411;58.386;15.560;2022-10-22T07:40:11;15.37;;;10.50;;
10719;SDS011;5411;58.386;15.560;2022-10-22T07:42:42;17.77;;;10.97;;
10719;SDS011;5411;58.386;15.560;2022-10-22T07:45:10;18.73;;;11.20;;
10719;SDS011;5411;58.386;15.560;2022-10-22T07:47:42;18.47;;;10.00;;
10719;SDS011;5411;58.386;15.560;2022-10-22T07:50:11;18.83;;;11.23;;
10719;SDS011;5411;58.386;15.560;2022-10-22T07:52:41;21.57;;;11.07;;
10719;SDS011;5411;58.386;15.560;2022-10-22T07:55:14;17.07;;;10.83;;
10719;SDS011;5411;58.386;15.560;2022-10-22T07:57:43;19.03;;;11.20;;
10719;SDS011;5411;58.386;15.560;2022-10-22T08:00:14;19.43;;;11.73;;
10719;SDS011;5411;58.386;15.560;2022-10-22T08:02:50;20.53;;;10.20;;
10719;SDS011;5411;58.386;15.560;2022-10-22T08:05:42;16.67;;;10.40;;
10719;SDS011;5411;58.386;15.560;2022-10-22T08:08:12;15.77;;;10.70;;
10719;SDS011;5411;58.386;15.560;2022-10-22T08:10:44;15.57;;;10.43;;
10719;SDS011;5411;58.386;15.560;2022-10-22T08:13:14;14.47;;;9.67;;
10719;SDS011;5411;58.386;15.560;2022-10-22T08:15:42;17.07;;;9.93;;
10719;SDS011;5411;58.386;15.560;2022-10-22T08:18:12;17.57;;;10.50;;
10719;SDS011;5411;58.386;15.560;2022-10-22T08:20:43;14.27;;;9.10;;
10719;SDS011;5411;58.386;15.560;2022-10-22T08:23:12;14.80;;;9.73;;
10719;SDS011;5411;58.386;15.560;2022-10-22T08:25:40;14.47;;;9.37;;
10719;SDS011;5411;58.386;15.560;2022-10-22T08:28:13;13.23;;;9.17;;
10719;SDS011;5411;58.386;15.560;2022-10-22T08:30:47;14.20;;;9.63;;
10719;SDS011;5411;58.386;15.560;2022-10-22T08:33:19;14.10;;;9.67;;
10719;SDS011;5411;58.386;15.560;2022-10-22T08:35:50;14.03;;;9.23;;
10719;SDS011;5411;58.386;15.560;2022-10-22T08:38:19;12.07;;;8.40;;
10719;SDS011;5411;58.386;15.560;2022-10-22T08:40:50;12.67;;;8.83;;
10719;SDS011;5411;58.386;15.560;2022-10-22T08:43:29;15.37;;;8.93;;
10719;SDS011;5411;58.386;15.560;2022-10-22T08:46:16;11.83;;;8.20;;
10719;SDS011;5411;58.386;15.560;2022-10-22T08:49:07;13.00;;;8.87;;
10719;SDS011;5411;58.386;15.560;2022-10-22T08:51:38;10.60;;;7.70;;
10719;SDS011;5411;58.386;15.560;2022-10-22T08:54:12;10.97;;;8.20;;
10719;SDS011;5411;58.386;15.560;2022-10-22T09:00:17;9.70;;;7.37;;
10719;SDS011;5411;58.386;15.560;2022-10-22T09:02:54;7.87;;;6.07;;
10719;SDS011;5411;58.386;15.560;2022-10-22T09:06:14;9.83;;;6.23;;
10719;SDS011;5411;58.386;15.560;2022-10-22T09:08:48;7.37;;;6.47;;
10719;SDS011;5411;58.386;15.560;2022-10-22T09:11:31;6.40;;;5.80;;
10719;SDS011;5411;58.386;15.560;2022-10-22T09:14:14;8.70;;;5.93;;
10719;SDS011;5411;58.386;15.560;2022-10-22T09:16:54;7.47;;;5.83;;
10719;SDS011;5411;58.386;15.560;2022-10-22T09:19:37;6.97;;;6.07;;
10719;SDS011;5411;58.386;15.560;2022-10-22T09:22:14;7.83;;;5.80;;
10719;SDS011;5411;58.386;15.560;2022-10-22T09:24:51;8.00;;;5.70;;
10719;SDS011;5411;58.386;15.560;2022-10-22T09:27:26;7.77;;;6.13;;
10719;SDS011;5411;58.386;15.560;2022-10-22T09:29:56;8.70;;;6.03;;
10719;SDS011;5411;58.386;15.560;2022-10-22T09:32:41;7.10;;;6.20;;
10719;SDS011;5411;58.386;15.560;2022-10-22T09:35:10;6.27;;;5.63;;
10719;SDS011;5411;58.386;15.560;2022-10-22T09:37:46;6.43;;;5.67;;
10719;SDS011;5411;58.386;15.560;2022-10-22T09:40:18;7.00;;;5.87;;
10719;SDS011;5411;58.386;15.560;2022-10-22T09:42:47;7.87;;;5.93;;
10719;SDS011;5411;58.386;15.560;2022-10-22T09:45:19;7.83;;;5.97;;
10719;SDS011;5411;58.386;15.560;2022-10-22T09:47:50;7.03;;;5.83;;
10719;SDS011;5411;58.386;15.560;2022-10-22T09:50:40;6.73;;;5.73;;
10719;SDS011;5411;58.386;15.560;2022-10-22T09:53:24;6.40;;;5.70;;
10719;SDS011;5411;58.386;15.560;2022-10-22T09:56:06;6.87;;;5.50;;
10719;SDS011;5411;58.386;15.560;2022-10-22T09:58:45;7.20;;;5.57;;
10719;SDS011;5411;58.386;15.560;2022-10-22T10:01:19;6.37;;;5.50;;
10719;SDS011;5411;58.386;15.560;2022-10-22T10:03:53;6.03;;;5.27;;
10719;SDS011;5411;58.386;15.560;2022-10-22T10:06:35;7.03;;;5.60;;
10719;SDS011;5411;58.386;15.560;2022-10-22T10:09:08;6.93;;;5.80;;
10719;SDS011;5411;58.386;15.560;2022-10-22T10:11:45;6.63;;;5.00;;
10719;SDS011;5411;58.386;15.560;2022-10-22T10:14:24;5.93;;;5.33;;
10719;SDS011;5411;58.386;15.560;2022-10-22T10:17:14;6.20;;;5.50;;
10719;SDS011;5411;58.386;15.560;2022-10-22T10:20:00;5.87;;;5.27;;
10719;SDS011;5411;58.386;15.560;2022-10-22T10:22:45;5.47;;;4.63;;
10719;SDS011;5411;58.386;15.560;2022-10-22T10:25:35;5.30;;;4.63;;
10719;SDS011;5411;58.386;15.560;2022-10-22T10:28:15;6.63;;;5.30;;
10719;SDS011;5411;58.386;15.560;2022-10-22T10:30:56;5.63;;;5.13;;
10719;SDS011;5411;58.386;15.560;2022-10-22T10:33:40;5.87;;;5.27;;
10719;SDS011;5411;58.386;15.560;2022-10-22T10:36:26;5.63;;;4.50;;
10719;SDS011;5411;58.386;15.560;2022-10-22T10:39:16;7.03;;;6.33;;
10719;SDS011;5411;58.386;15.560;2022-10-22T10:41:54;5.70;;;5.20;;
10719;SDS011;5411;58.386;15.560;2022-10-22T10:44:36;5.77;;;5.27;;
10719;SDS011;5411;58.386;15.560;2022-10-22T10:47:19;6.47;;;5.67;;
10719;SDS011;5411;58.386;15.560;2022-10-22T10:50:17;5.70;;;5.10;;
10719;SDS011;5411;58.386;15.560;2022-10-22T10:52:56;5.57;;;5.07;;
10719;SDS011;5411;58.386;15.560;2022-10-22T10:55:34;5.60;;;5.10;;
10719;SDS011;5411;58.386;15.560;2022-10-22T10:58:12;6.03;;;5.40;;
10719;SDS011;5411;58.386;15.560;2022-10-22T11:00:49;5.97;;;5.37;;
10719;SDS011;5411;58.386;15.560;2022-10-22T11:03:45;6.53;;;5.37;;
10719;SDS011;5411;58.386;15.560;2022-10-22T11:06:52;5.43;;;4.93;;
10719;SDS011;5411;58.386;15.560;2022-10-22T11:09:40;5.37;;;4.87;;
10719;SDS011;5411;58.386;15.560;2022-10-22T11:12:16;6.00;;;5.33;;
10719;SDS011;5411;58.386;15.560;2022-10-22T11:14:55;5.77;;;5.17;;
10719;SDS011;5411;58.386;15.560;2022-10-22T11:17:38;5.10;;;4.60;;
10719;SDS011;5411;58.386;15.560;2022-10-22T11:20:38;5.80;;;4.47;;
10719;SDS011;5411;58.386;15.560;2022-10-22T11:23:20;5.40;;;4.80;;
10719;SDS011;5411;58.386;15.560;2022-10-22T11:29:00;5.07;;;4.57;;
10719;SDS011;5411;58.386;15.560;2022-10-22T11:31:43;4.30;;;3.90;;
10719;SDS011;5411;58.386;15.560;2022-10-22T11:34:17;5.97;;;4.57;;
10719;SDS011;5411;58.386;15.560;2022-10-22T11:36:59;4.67;;;4.27;;
10719;SDS011;5411;58.386;15.560;2022-10-22T11:39:37;5.00;;;4.50;;
10719;SDS011;5411;58.386;15.560;2022-10-22T11:42:32;4.80;;;4.40;;
10719;SDS011;5411;58.386;15.560;2022-10-22T11:45:26;4.70;;;4.30;;
10719;SDS011;5411;58.386;15.560;2022-10-22T11:48:13;4.40;;;4.00;;
10719;SDS011;5411;58.386;15.560;2022-10-22T11:50:49;4.90;;;4.40;;
10719;SDS011;5411;58.386;15.560;2022-10-22T11:53:32;4.63;;;4.10;;
10719;SDS011;5411;58.386;15.560;2022-10-22T11:58:58;4.57;;;4.17;;
10719;SDS011;5411;58.386;15.560;2022-10-22T12:01:29;4.50;;;4.10;;
10719;SDS011;5411;58.386;15.560;2022-10-22T12:04:17;5.20;;;4.73;;
10719;SDS011;5411;58.386;15.560;2022-10-22T12:06:53;4.70;;;4.17;;
10719;SDS011;5411;58.386;15.560;2022-10-22T12:09:30;4.90;;;4.40;;
10719;SDS011;5411;58.386;15.560;2022-10-22T12:12:18;4.80;;;4.30;;
10719;SDS011;5411;58.386;15.560;2022-10-22T12:14:53;4.87;;;4.43;;
10719;SDS011;5411;58.386;15.560;2022-10-22T12:17:26;5.07;;;4.67;;
10719;SDS011;5411;58.386;15.560;2022-10-22T12:20:06;5.33;;;4.83;;
10719;SDS011;5411;58.386;15.560;2022-10-22T12:22:44;4.97;;;4.47;;
10719;SDS011;5411;58.386;15.560;2022-10-22T12:25:23;4.13;;;3.73;;
10719;SDS011;5411;58.386;15.560;2022-10-22T12:28:08;4.67;;;4.03;;
10719;SDS011;5411;58.386;15.560;2022-10-22T12:30:41;4.57;;;4.13;;
10719;SDS011;5411;58.386;15.560;2022-10-22T12:33:17;4.37;;;3.97;;
10719;SDS011;5411;58.386;15.560;2022-10-22T12:35:49;4.57;;;4.10;;
10719;SDS011;5411;58.386;15.560;2022-10-22T12:38:23;4.70;;;4.17;;
10719;SDS011;5411;58.386;15.560;2022-10-22T12:40:53;4.23;;;3.83;;
10719;SDS011;5411;58.386;15.560;2022-10-22T12:43:24;5.17;;;3.90;;
10719;SDS011;5411;58.386;15.560;2022-10-22T12:45:58;4.00;;;3.43;;
10719;SDS011;5411;58.386;15.560;2022-10-22T12:48:28;4.97;;;4.57;;
10719;SDS011;5411;58.386;15.560;2022-10-22T12:51:02;5.13;;;4.00;;
10719;SDS011;5411;58.386;15.560;2022-10-22T12:53:34;4.80;;;4.30;;
10719;SDS011;5411;58.386;15.560;2022-10-22T12:56:09;5.83;;;4.43;;
10719;SDS011;5411;58.386;15.560;2022-10-22T12:58:42;4.33;;;3.93;;
10719;SDS011;5411;58.386;15.560;2022-10-22T13:01:23;4.83;;;4.30;;
10719;SDS011;5411;58.386;15.560;2022-10-22T13:04:03;4.90;;;4.50;;
10719;SDS011;5411;58.386;15.560;2022-10-22T13:06:33;5.33;;;4.83;;
10719;SDS011;5411;58.386;15.560;2022-10-22T13:09:06;6.60;;;5.10;;
10719;SDS011;5411;58.386;15.560;2022-10-22T13:11:46;6.93;;;5.90;;
10719;SDS011;5411;58.386;15.560;2022-10-22T13:14:20;7.00;;;5.73;;
10719;SDS011;5411;58.386;15.560;2022-10-22T13:17:04;7.57;;;5.23;;
10719;SDS011;5411;58.386;15.560;2022-10-22T13:19:36;7.37;;;6.03;;
10719;SDS011;5411;58.386;15.560;2022-10-22T13:22:39;7.53;;;6.73;;
10719;SDS011;5411;58.386;15.560;2022-10-22T13:25:22;8.23;;;6.87;;
10719;SDS011;5411;58.386;15.560;2022-10-22T13:27:52;8.73;;;6.87;;
10719;SDS011;5411;58.386;15.560;2022-10-22T13:30:26;10.07;;;7.43;;
10719;SDS011;5411;58.386;15.560;2022-10-22T13:32:58;9.23;;;7.33;;
10719;SDS011;5411;58.386;15.560;2022-10-22T13:35:29;8.13;;;7.27;;
10719;SDS011;5411;58.386;15.560;2022-10-22T13:38:05;9.27;;;8.10;;
10719;SDS011;5411;58.386;15.560;2022-10-22T13:40:48;8.17;;;6.93;;
10719;SDS011;5411;58.386;15.560;2022-10-22T13:43:21;8.87;;;7.93;;
10719;SDS011;5411;58.386;15.560;2022-10-22T13:45:51;8.10;;;7.30;;
10719;SDS011;5411;58.386;15.560;2022-10-22T13:48:28;7.53;;;6.73;;
10719;SDS011;5411;58.386;15.560;2022-10-22T13:51:01;8.13;;;6.77;;
10719;SDS011;5411;58.386;15.560;2022-10-22T13:53:42;8.97;;;7.33;;
10719;SDS011;5411;58.386;15.560;2022-10-22T13:56:19;8.93;;;7.97;;
10719;SDS011;5411;58.386;15.560;2022-10-22T13:58:56;9.83;;;8.53;;
10719;SDS011;5411;58.386;15.560;2022-10-22T14:01:25;11.07;;;8.23;;
10719;SDS011;5411;58.386;15.560;2022-10-22T14:04:00;11.17;;;9.10;;
10719;SDS011;5411;58.386;15.560;2022-10-22T14:06:48;10.60;;;9.20;;
10719;SDS011;5411;58.386;15.560;2022-10-22T14:09:25;10.23;;;9.10;;
10719;SDS011;5411;58.386;15.560;2022-10-22T14:11:53;10.80;;;9.70;;
10719;SDS011;5411;58.386;15.560;2022-10-22T14:14:22;12.40;;;9.73;;
10719;SDS011;5411;58.386;15.560;2022-10-22T14:16:52;11.00;;;9.80;;
10719;SDS011;5411;58.386;15.560;2022-10-22T14:19:23;11.50;;;10.17;;
10719;SDS011;5411;58.386;15.560;2022-10-22T14:21:54;10.93;;;9.60;;
10719;SDS011;5411;58.386;15.560;2022-10-22T14:24:25;13.57;;;9.43;;
10719;SDS011;5411;58.386;15.560;2022-10-22T14:26:53;11.00;;;9.17;;
10719;SDS011;5411;58.386;15.560;2022-10-22T14:29:22;12.10;;;9.90;;
10719;SDS011;5411;58.386;15.560;2022-10-22T14:31:51;12.27;;;10.03;;
10719;SDS011;5411;58.386;15.560;2022-10-22T14:34:20;10.73;;;9.20;;
10719;SDS011;5411;58.386;15.560;2022-10-22T14:36:50;10.20;;;9.07;;
10719;SDS011;5411;58.386;15.560;2022-10-22T14:39:18;10.00;;;8.70;;
10719;SDS011;5411;58.386;15.560;2022-10-22T14:41:47;10.50;;;8.93;;
10719;SDS011;5411;58.386;15.560;2022-10-22T14:44:15;12.53;;;8.77;;
10719;SDS011;5411;58.386;15.560;2022-10-22T14:46:43;12.17;;;8.33;;
10719;SDS011;5411;58.386;15.560;2022-10-22T14:49:12;12.73;;;9.17;;
10719;SDS011;5411;58.386;15.560;2022-10-22T14:51:44;10.93;;;8.83;;
10719;SDS011;5411;58.386;15.560;2022-10-22T14:54:14;10.27;;;8.93;;
10719;SDS011;5411;58.386;15.560;2022-10-22T14:56:43;10.27;;;8.67;;
10719;SDS011;5411;58.386;15.560;2022-10-22T14:59:15;11.67;;;9.60;;
10719;SDS011;5411;58.386;15.560;2022-10-22T15:01:45;10.40;;;8.63;;
10719;SDS011;5411;58.386;15.560;2022-10-22T15:04:14;12.83;;;9.63;;
10719;SDS011;5411;58.386;15.560;2022-10-22T15:06:45;13.60;;;9.17;;
10719;SDS011;5411;58.386;15.560;2022-10-22T15:09:14;10.53;;;9.03;;
10719;SDS011;5411;58.386;15.560;2022-10-22T15:11:45;10.97;;;8.77;;
10719;SDS011;5411;58.386;15.560;2022-10-22T15:14:14;11.67;;;8.67;;
10719;SDS011;5411;58.386;15.560;2022-10-22T15:16:43;14.53;;;9.33;;
10719;SDS011;5411;58.386;15.560;2022-10-22T15:19:14;11.97;;;8.37;;
10719;SDS011;5411;58.386;15.560;2022-10-22T15:21:47;10.67;;;9.20;;
10719;SDS011;5411;58.386;15.560;2022-10-22T15:24:18;11.40;;;9.27;;
10719;SDS011;5411;58.386;15.560;2022-10-22T15:26:48;11.57;;;8.47;;
10719;SDS011;5411;58.386;15.560;2022-10-22T15:29:22;10.97;;;8.20;;
10719;SDS011;5411;58.386;15.560;2022-10-22T15:31:51;10.90;;;9.03;;
10719;SDS011;5411;58.386;15.560;2022-10-22T15:34:24;12.87;;;9.17;;
10719;SDS011;5411;58.386;15.560;2022-10-22T15:37:10;12.67;;;10.50;;